sensor_id;sensor_type;location;lat;lon;timestamp;P1;durP1;ratioP1;P2;durP2;ratioP2
52380;SDS011;38310;52.796;6.942;2022-11-13T00:01:12;19.73;;;17.40;;
52380;SDS011;38310;52.796;6.942;2022-11-13T00:03:45;20.50;;;18.05;;
52380;SDS011;38310;52.796;6.942;2022-11-13T00:06:11;20.17;;;17.98;;
52380;SDS011;38310;52.796;6.942;2022-11-13T00:08:39;23.00;;;19.80;;
52380;SDS011;38310;52.796;6.942;2022-11-13T00:11:06;20.35;;;18.15;;
52380;SDS011;38310;52.796;6.942;2022-11-13T00:13:34;22.40;;;19.73;;
52380;SDS011;38310;52.796;6.942;2022-11-13T00:16:01;21.48;;;19.17;;
52380;SDS011;38310;52.796;6.942;2022-11-13T00:18:29;22.80;;;20.40;;
52380;SDS011;38310;52.796;6.942;2022-11-13T00:21:02;23.27;;;19.73;;
52380;SDS011;38310;52.796;6.942;2022-11-13T00:23:34;20.33;;;18.13;;
52380;SDS011;38310;52.796;6.942;2022-11-13T00:26:08;22.48;;;19.73;;
52380;SDS011;38310;52.796;6.942;2022-11-13T00:28:35;21.42;;;19.13;;
52380;SDS011;38310;52.796;6.942;2022-11-13T00:31:01;21.38;;;18.83;;
52380;SDS011;38310;52.796;6.942;2022-11-13T00:33:28;21.15;;;18.60;;
52380;SDS011;38310;52.796;6.942;2022-11-13T00:36:01;19.23;;;17.15;;
52380;SDS011;38310;52.796;6.942;2022-11-13T00:38:59;23.33;;;19.00;;
52380;SDS011;38310;52.796;6.942;2022-11-13T00:41:43;21.50;;;18.67;;
52380;SDS011;38310;52.796;6.942;2022-11-13T00:44:09;21.90;;;19.30;;
52380;SDS011;38310;52.796;6.942;2022-11-13T00:46:35;21.38;;;19.10;;
52380;SDS011;38310;52.796;6.942;2022-11-13T00:49:01;22.52;;;20.10;;
52380;SDS011;38310;52.796;6.942;2022-11-13T00:51:26;25.30;;;22.00;;
52380;SDS011;38310;52.796;6.942;2022-11-13T00:53:52;23.05;;;20.60;;
52380;SDS011;38310;52.796;6.942;2022-11-13T00:56:18;24.80;;;19.67;;
52380;SDS011;38310;52.796;6.942;2022-11-13T00:58:43;23.67;;;19.60;;
52380;SDS011;38310;52.796;6.942;2022-11-13T01:01:10;23.15;;;20.20;;
52380;SDS011;38310;52.796;6.942;2022-11-13T01:03:39;21.55;;;18.48;;
52380;SDS011;38310;52.796;6.942;2022-11-13T01:06:38;24.45;;;21.65;;
52380;SDS011;38310;52.796;6.942;2022-11-13T01:08:57;21.33;;;19.10;;
52380;SDS011;38310;52.796;6.942;2022-11-13T01:11:24;25.02;;;22.30;;
52380;SDS011;38310;52.796;6.942;2022-11-13T01:13:53;24.80;;;22.17;;
52380;SDS011;38310;52.796;6.942;2022-11-13T01:16:21;26.23;;;21.52;;
52380;SDS011;38310;52.796;6.942;2022-11-13T01:18:48;27.33;;;22.23;;
52380;SDS011;38310;52.796;6.942;2022-11-13T01:21:15;27.05;;;22.25;;
52380;SDS011;38310;52.796;6.942;2022-11-13T01:23:43;24.38;;;20.42;;
52380;SDS011;38310;52.796;6.942;2022-11-13T01:26:11;25.27;;;22.20;;
52380;SDS011;38310;52.796;6.942;2022-11-13T01:28:39;24.35;;;21.42;;
52380;SDS011;38310;52.796;6.942;2022-11-13T01:31:06;26.65;;;22.27;;
52380;SDS011;38310;52.796;6.942;2022-11-13T01:33:33;24.35;;;21.73;;
52380;SDS011;38310;52.796;6.942;2022-11-13T01:36:03;23.98;;;21.33;;
52380;SDS011;38310;52.796;6.942;2022-11-13T01:38:37;25.45;;;21.95;;
52380;SDS011;38310;52.796;6.942;2022-11-13T01:41:03;25.20;;;22.50;;
52380;SDS011;38310;52.796;6.942;2022-11-13T01:43:30;23.83;;;20.98;;
52380;SDS011;38310;52.796;6.942;2022-11-13T01:48:30;25.23;;;22.52;;
52380;SDS011;38310;52.796;6.942;2022-11-13T01:51:10;24.45;;;20.25;;
52380;SDS011;38310;52.796;6.942;2022-11-13T01:53:40;24.40;;;21.20;;
52380;SDS011;38310;52.796;6.942;2022-11-13T01:56:10;23.33;;;20.83;;
52380;SDS011;38310;52.796;6.942;2022-11-13T01:58:37;23.52;;;20.10;;
52380;SDS011;38310;52.796;6.942;2022-11-13T02:01:04;30.35;;;22.27;;
52380;SDS011;38310;52.796;6.942;2022-11-13T02:03:30;21.70;;;19.30;;
52380;SDS011;38310;52.796;6.942;2022-11-13T02:05:56;23.10;;;20.23;;
52380;SDS011;38310;52.796;6.942;2022-11-13T02:08:22;22.10;;;19.83;;
52380;SDS011;38310;52.796;6.942;2022-11-13T02:10:48;25.88;;;21.25;;
52380;SDS011;38310;52.796;6.942;2022-11-13T02:13:14;22.58;;;19.40;;
52380;SDS011;38310;52.796;6.942;2022-11-13T02:15:40;24.45;;;20.83;;
52380;SDS011;38310;52.796;6.942;2022-11-13T02:18:07;22.95;;;20.55;;
52380;SDS011;38310;52.796;6.942;2022-11-13T02:26:00;24.65;;;21.48;;
52380;SDS011;38310;52.796;6.942;2022-11-13T02:28:27;25.17;;;21.55;;
52380;SDS011;38310;52.796;6.942;2022-11-13T02:30:53;25.98;;;20.23;;
52380;SDS011;38310;52.796;6.942;2022-11-13T02:33:29;24.10;;;21.50;;
52380;SDS011;38310;52.796;6.942;2022-11-13T02:35:56;27.42;;;20.75;;
52380;SDS011;38310;52.796;6.942;2022-11-13T02:38:23;24.10;;;21.05;;
52380;SDS011;38310;52.796;6.942;2022-11-13T02:40:49;26.25;;;22.50;;
52380;SDS011;38310;52.796;6.942;2022-11-13T02:43:14;24.98;;;20.70;;
52380;SDS011;38310;52.796;6.942;2022-11-13T02:45:40;24.58;;;21.98;;
52380;SDS011;38310;52.796;6.942;2022-11-13T02:48:06;26.33;;;21.95;;
52380;SDS011;38310;52.796;6.942;2022-11-13T02:50:32;22.40;;;20.00;;
52380;SDS011;38310;52.796;6.942;2022-11-13T02:52:59;25.67;;;21.38;;
52380;SDS011;38310;52.796;6.942;2022-11-13T02:55:25;23.45;;;20.92;;
52380;SDS011;38310;52.796;6.942;2022-11-13T02:57:51;23.83;;;20.80;;
52380;SDS011;38310;52.796;6.942;2022-11-13T03:00:17;23.50;;;21.00;;
52380;SDS011;38310;52.796;6.942;2022-11-13T03:02:43;21.92;;;19.58;;
52380;SDS011;38310;52.796;6.942;2022-11-13T03:05:08;26.90;;;20.90;;
52380;SDS011;38310;52.796;6.942;2022-11-13T03:07:34;22.88;;;20.27;;
52380;SDS011;38310;52.796;6.942;2022-11-13T03:10:00;23.52;;;19.85;;
52380;SDS011;38310;52.796;6.942;2022-11-13T03:12:25;28.08;;;22.65;;
52380;SDS011;38310;52.796;6.942;2022-11-13T03:14:51;24.38;;;20.67;;
52380;SDS011;38310;52.796;6.942;2022-11-13T03:17:17;24.40;;;21.00;;
52380;SDS011;38310;52.796;6.942;2022-11-13T03:19:42;21.60;;;19.30;;
52380;SDS011;38310;52.796;6.942;2022-11-13T03:22:08;24.38;;;20.67;;
52380;SDS011;38310;52.796;6.942;2022-11-13T03:24:34;23.73;;;21.13;;
52380;SDS011;38310;52.796;6.942;2022-11-13T03:26:59;22.23;;;19.83;;
52380;SDS011;38310;52.796;6.942;2022-11-13T03:29:25;27.40;;;23.45;;
52380;SDS011;38310;52.796;6.942;2022-11-13T03:31:51;24.33;;;21.67;;
52380;SDS011;38310;52.796;6.942;2022-11-13T03:34:16;26.02;;;21.30;;
52380;SDS011;38310;52.796;6.942;2022-11-13T03:36:42;25.77;;;22.63;;
52380;SDS011;38310;52.796;6.942;2022-11-13T03:39:08;25.92;;;22.33;;
52380;SDS011;38310;52.796;6.942;2022-11-13T03:41:34;24.85;;;22.08;;
52380;SDS011;38310;52.796;6.942;2022-11-13T03:44:00;25.15;;;21.33;;
52380;SDS011;38310;52.796;6.942;2022-11-13T03:46:26;26.02;;;23.13;;
52380;SDS011;38310;52.796;6.942;2022-11-13T03:48:54;26.02;;;22.00;;
52380;SDS011;38310;52.796;6.942;2022-11-13T03:51:19;28.08;;;21.38;;
52380;SDS011;38310;52.796;6.942;2022-11-13T03:53:45;22.48;;;19.38;;
52380;SDS011;38310;52.796;6.942;2022-11-13T03:56:11;24.35;;;21.17;;
52380;SDS011;38310;52.796;6.942;2022-11-13T03:58:37;23.27;;;20.15;;
52380;SDS011;38310;52.796;6.942;2022-11-13T04:01:02;26.85;;;23.58;;
52380;SDS011;38310;52.796;6.942;2022-11-13T04:03:28;30.05;;;24.40;;
52380;SDS011;38310;52.796;6.942;2022-11-13T04:05:54;29.90;;;24.83;;
52380;SDS011;38310;52.796;6.942;2022-11-13T04:08:19;26.63;;;23.73;;
52380;SDS011;38310;52.796;6.942;2022-11-13T04:10:45;26.27;;;22.15;;
52380;SDS011;38310;52.796;6.942;2022-11-13T04:13:12;26.85;;;23.33;;
52380;SDS011;38310;52.796;6.942;2022-11-13T04:15:38;26.27;;;21.42;;
52380;SDS011;38310;52.796;6.942;2022-11-13T04:18:04;26.55;;;21.35;;
52380;SDS011;38310;52.796;6.942;2022-11-13T04:20:30;28.17;;;23.50;;
52380;SDS011;38310;52.796;6.942;2022-11-13T04:22:56;28.08;;;23.67;;
52380;SDS011;38310;52.796;6.942;2022-11-13T04:25:22;27.58;;;24.35;;
52380;SDS011;38310;52.796;6.942;2022-11-13T04:27:49;30.52;;;26.10;;
52380;SDS011;38310;52.796;6.942;2022-11-13T04:30:15;26.33;;;22.27;;
52380;SDS011;38310;52.796;6.942;2022-11-13T04:32:45;27.73;;;22.77;;
52380;SDS011;38310;52.796;6.942;2022-11-13T04:35:11;26.65;;;22.90;;
52380;SDS011;38310;52.796;6.942;2022-11-13T04:37:36;27.52;;;23.52;;
52380;SDS011;38310;52.796;6.942;2022-11-13T04:40:10;30.92;;;25.63;;
52380;SDS011;38310;52.796;6.942;2022-11-13T04:42:35;27.20;;;23.73;;
52380;SDS011;38310;52.796;6.942;2022-11-13T04:47:58;27.70;;;24.05;;
52380;SDS011;38310;52.796;6.942;2022-11-13T04:50:23;25.25;;;22.65;;
52380;SDS011;38310;52.796;6.942;2022-11-13T04:52:49;25.52;;;22.67;;
52380;SDS011;38310;52.796;6.942;2022-11-13T04:55:15;26.65;;;21.70;;
52380;SDS011;38310;52.796;6.942;2022-11-13T04:57:41;25.05;;;21.63;;
52380;SDS011;38310;52.796;6.942;2022-11-13T05:00:07;25.10;;;20.67;;
52380;SDS011;38310;52.796;6.942;2022-11-13T05:02:33;23.13;;;20.05;;
52380;SDS011;38310;52.796;6.942;2022-11-13T05:04:59;25.23;;;20.95;;
52380;SDS011;38310;52.796;6.942;2022-11-13T05:07:25;22.17;;;19.77;;
52380;SDS011;38310;52.796;6.942;2022-11-13T05:09:51;23.20;;;19.92;;
52380;SDS011;38310;52.796;6.942;2022-11-13T05:12:18;22.95;;;20.52;;
52380;SDS011;38310;52.796;6.942;2022-11-13T05:14:44;23.33;;;20.75;;
52380;SDS011;38310;52.796;6.942;2022-11-13T05:17:10;23.42;;;20.80;;
52380;SDS011;38310;52.796;6.942;2022-11-13T05:19:36;21.00;;;18.38;;
52380;SDS011;38310;52.796;6.942;2022-11-13T05:22:02;23.70;;;20.33;;
52380;SDS011;38310;52.796;6.942;2022-11-13T05:24:29;26.88;;;21.00;;
52380;SDS011;38310;52.796;6.942;2022-11-13T05:26:54;23.10;;;19.65;;
52380;SDS011;38310;52.796;6.942;2022-11-13T05:29:20;23.42;;;20.48;;
52380;SDS011;38310;52.796;6.942;2022-11-13T05:31:46;23.48;;;18.60;;
52380;SDS011;38310;52.796;6.942;2022-11-13T05:34:12;20.67;;;18.35;;
52380;SDS011;38310;52.796;6.942;2022-11-13T05:36:38;21.17;;;17.77;;
52380;SDS011;38310;52.796;6.942;2022-11-13T05:39:04;21.45;;;19.15;;
52380;SDS011;38310;52.796;6.942;2022-11-13T05:41:30;21.67;;;18.25;;
52380;SDS011;38310;52.796;6.942;2022-11-13T05:43:56;20.10;;;17.80;;
52380;SDS011;38310;52.796;6.942;2022-11-13T05:46:23;20.50;;;16.88;;
52380;SDS011;38310;52.796;6.942;2022-11-13T05:48:52;21.05;;;17.88;;
52380;SDS011;38310;52.796;6.942;2022-11-13T05:51:31;20.48;;;18.17;;
52380;SDS011;38310;52.796;6.942;2022-11-13T05:53:58;20.40;;;17.95;;
52380;SDS011;38310;52.796;6.942;2022-11-13T05:56:28;19.67;;;16.92;;
52380;SDS011;38310;52.796;6.942;2022-11-13T05:58:57;22.27;;;18.08;;
52380;SDS011;38310;52.796;6.942;2022-11-13T06:01:28;20.05;;;17.30;;
52380;SDS011;38310;52.796;6.942;2022-11-13T06:03:59;19.70;;;17.20;;
52380;SDS011;38310;52.796;6.942;2022-11-13T06:06:26;19.85;;;16.85;;
52380;SDS011;38310;52.796;6.942;2022-11-13T06:08:53;21.50;;;19.17;;
52380;SDS011;38310;52.796;6.942;2022-11-13T06:11:21;19.65;;;17.65;;
52380;SDS011;38310;52.796;6.942;2022-11-13T06:13:49;24.58;;;20.13;;
52380;SDS011;38310;52.796;6.942;2022-11-13T06:16:16;20.35;;;17.75;;
52380;SDS011;38310;52.796;6.942;2022-11-13T06:18:44;18.65;;;16.48;;
52380;SDS011;38310;52.796;6.942;2022-11-13T06:21:15;21.95;;;17.90;;
52380;SDS011;38310;52.796;6.942;2022-11-13T06:23:43;22.63;;;18.45;;
52380;SDS011;38310;52.796;6.942;2022-11-13T06:26:16;23.33;;;18.05;;
52380;SDS011;38310;52.796;6.942;2022-11-13T06:28:46;19.40;;;17.30;;
52380;SDS011;38310;52.796;6.942;2022-11-13T06:33:40;20.05;;;16.85;;
52380;SDS011;38310;52.796;6.942;2022-11-13T06:36:08;20.02;;;17.35;;
52380;SDS011;38310;52.796;6.942;2022-11-13T06:38:36;20.75;;;17.73;;
52380;SDS011;38310;52.796;6.942;2022-11-13T06:41:03;18.73;;;16.60;;
52380;SDS011;38310;52.796;6.942;2022-11-13T06:43:30;19.55;;;17.63;;
52380;SDS011;38310;52.796;6.942;2022-11-13T06:45:56;22.02;;;17.08;;
52380;SDS011;38310;52.796;6.942;2022-11-13T06:48:23;20.40;;;18.30;;
52380;SDS011;38310;52.796;6.942;2022-11-13T06:50:49;20.38;;;16.20;;
52380;SDS011;38310;52.796;6.942;2022-11-13T06:53:16;20.65;;;17.45;;
52380;SDS011;38310;52.796;6.942;2022-11-13T06:55:48;20.80;;;18.33;;
52380;SDS011;38310;52.796;6.942;2022-11-13T06:58:15;19.75;;;15.90;;
52380;SDS011;38310;52.796;6.942;2022-11-13T07:00:41;20.48;;;16.60;;
52380;SDS011;38310;52.796;6.942;2022-11-13T07:03:24;20.50;;;16.92;;
52380;SDS011;38310;52.796;6.942;2022-11-13T07:05:51;18.67;;;16.75;;
52380;SDS011;38310;52.796;6.942;2022-11-13T07:08:20;19.30;;;16.90;;
52380;SDS011;38310;52.796;6.942;2022-11-13T07:10:52;18.67;;;16.40;;
52380;SDS011;38310;52.796;6.942;2022-11-13T07:13:19;21.33;;;17.85;;
52380;SDS011;38310;52.796;6.942;2022-11-13T07:15:45;20.67;;;18.25;;
52380;SDS011;38310;52.796;6.942;2022-11-13T07:18:11;18.23;;;16.20;;
52380;SDS011;38310;52.796;6.942;2022-11-13T07:20:37;19.30;;;16.20;;
52380;SDS011;38310;52.796;6.942;2022-11-13T07:23:10;20.42;;;16.95;;
52380;SDS011;38310;52.796;6.942;2022-11-13T07:25:36;17.27;;;15.47;;
52380;SDS011;38310;52.796;6.942;2022-11-13T07:28:02;18.45;;;16.48;;
52380;SDS011;38310;52.796;6.942;2022-11-13T07:30:27;18.83;;;16.83;;
52380;SDS011;38310;52.796;6.942;2022-11-13T07:32:53;17.15;;;15.00;;
52380;SDS011;38310;52.796;6.942;2022-11-13T07:35:19;19.58;;;17.48;;
52380;SDS011;38310;52.796;6.942;2022-11-13T07:37:44;21.95;;;18.58;;
52380;SDS011;38310;52.796;6.942;2022-11-13T07:40:10;22.88;;;16.77;;
52380;SDS011;38310;52.796;6.942;2022-11-13T07:42:37;22.00;;;17.88;;
52380;SDS011;38310;52.796;6.942;2022-11-13T07:45:04;19.05;;;15.93;;
52380;SDS011;38310;52.796;6.942;2022-11-13T07:47:31;22.15;;;18.73;;
52380;SDS011;38310;52.796;6.942;2022-11-13T07:49:57;19.95;;;17.05;;
52380;SDS011;38310;52.796;6.942;2022-11-13T07:52:22;19.77;;;17.67;;
52380;SDS011;38310;52.796;6.942;2022-11-13T07:54:48;20.25;;;16.83;;
52380;SDS011;38310;52.796;6.942;2022-11-13T07:57:14;23.38;;;18.58;;
52380;SDS011;38310;52.796;6.942;2022-11-13T07:59:39;19.45;;;17.45;;
52380;SDS011;38310;52.796;6.942;2022-11-13T08:02:05;20.02;;;17.92;;
52380;SDS011;38310;52.796;6.942;2022-11-13T08:04:33;19.13;;;17.08;;
52380;SDS011;38310;52.796;6.942;2022-11-13T08:06:59;20.10;;;17.88;;
52380;SDS011;38310;52.796;6.942;2022-11-13T08:09:24;22.30;;;18.08;;
52380;SDS011;38310;52.796;6.942;2022-11-13T08:11:50;22.48;;;20.17;;
52380;SDS011;38310;52.796;6.942;2022-11-13T08:14:16;20.27;;;18.15;;
52380;SDS011;38310;52.796;6.942;2022-11-13T08:16:48;20.15;;;18.00;;
52380;SDS011;38310;52.796;6.942;2022-11-13T08:19:14;21.83;;;19.40;;
52380;SDS011;38310;52.796;6.942;2022-11-13T08:21:40;22.13;;;19.60;;
52380;SDS011;38310;52.796;6.942;2022-11-13T08:24:06;21.05;;;18.33;;
52380;SDS011;38310;52.796;6.942;2022-11-13T08:26:35;21.38;;;18.52;;
52380;SDS011;38310;52.796;6.942;2022-11-13T08:29:08;22.15;;;18.48;;
52380;SDS011;38310;52.796;6.942;2022-11-13T08:31:34;23.20;;;19.52;;
52380;SDS011;38310;52.796;6.942;2022-11-13T08:34:00;21.42;;;19.23;;
52380;SDS011;38310;52.796;6.942;2022-11-13T08:36:26;22.42;;;20.02;;
52380;SDS011;38310;52.796;6.942;2022-11-13T08:38:51;22.02;;;19.67;;
52380;SDS011;38310;52.796;6.942;2022-11-13T08:41:17;22.70;;;19.23;;
52380;SDS011;38310;52.796;6.942;2022-11-13T08:43:43;22.58;;;20.15;;
52380;SDS011;38310;52.796;6.942;2022-11-13T08:46:08;25.10;;;22.38;;
52380;SDS011;38310;52.796;6.942;2022-11-13T08:48:34;24.73;;;22.23;;
52380;SDS011;38310;52.796;6.942;2022-11-13T08:51:01;24.33;;;21.75;;
52380;SDS011;38310;52.796;6.942;2022-11-13T08:53:27;25.77;;;21.10;;
52380;SDS011;38310;52.796;6.942;2022-11-13T08:55:53;24.90;;;20.67;;
52380;SDS011;38310;52.796;6.942;2022-11-13T08:58:18;21.30;;;18.58;;
52380;SDS011;38310;52.796;6.942;2022-11-13T09:00:44;23.45;;;21.08;;
52380;SDS011;38310;52.796;6.942;2022-11-13T09:03:10;26.10;;;23.27;;
52380;SDS011;38310;52.796;6.942;2022-11-13T09:05:36;25.48;;;22.83;;
52380;SDS011;38310;52.796;6.942;2022-11-13T09:08:02;27.65;;;23.63;;
52380;SDS011;38310;52.796;6.942;2022-11-13T09:10:28;23.80;;;21.23;;
52380;SDS011;38310;52.796;6.942;2022-11-13T09:13:00;25.48;;;22.73;;
52380;SDS011;38310;52.796;6.942;2022-11-13T09:15:43;27.42;;;23.83;;
52380;SDS011;38310;52.796;6.942;2022-11-13T09:18:08;29.70;;;25.05;;
52380;SDS011;38310;52.796;6.942;2022-11-13T09:20:34;24.65;;;22.05;;
52380;SDS011;38310;52.796;6.942;2022-11-13T09:23:02;27.23;;;22.48;;
52380;SDS011;38310;52.796;6.942;2022-11-13T09:25:47;27.52;;;23.48;;
52380;SDS011;38310;52.796;6.942;2022-11-13T09:28:14;31.15;;;26.05;;
52380;SDS011;38310;52.796;6.942;2022-11-13T09:30:39;25.95;;;23.15;;
52380;SDS011;38310;52.796;6.942;2022-11-13T09:33:05;25.42;;;22.60;;
52380;SDS011;38310;52.796;6.942;2022-11-13T09:35:31;26.38;;;22.40;;
52380;SDS011;38310;52.796;6.942;2022-11-13T09:43:13;25.67;;;22.55;;
52380;SDS011;38310;52.796;6.942;2022-11-13T09:46:06;24.35;;;21.75;;
52380;SDS011;38310;52.796;6.942;2022-11-13T09:48:53;26.20;;;22.55;;
52380;SDS011;38310;52.796;6.942;2022-11-13T09:51:30;23.77;;;21.00;;
52380;SDS011;38310;52.796;6.942;2022-11-13T09:54:02;26.45;;;23.67;;
52380;SDS011;38310;52.796;6.942;2022-11-13T09:56:39;23.75;;;21.25;;
52380;SDS011;38310;52.796;6.942;2022-11-13T10:05:18;24.42;;;21.83;;
52380;SDS011;38310;52.796;6.942;2022-11-13T10:07:32;24.05;;;20.67;;
52380;SDS011;38310;52.796;6.942;2022-11-13T10:13:09;21.42;;;18.83;;
52380;SDS011;38310;52.796;6.942;2022-11-13T10:15:39;19.80;;;17.20;;
52380;SDS011;38310;52.796;6.942;2022-11-13T10:18:12;22.25;;;19.00;;
52380;SDS011;38310;52.796;6.942;2022-11-13T10:20:46;18.17;;;15.95;;
52380;SDS011;38310;52.796;6.942;2022-11-13T10:23:27;17.27;;;15.23;;
52380;SDS011;38310;52.796;6.942;2022-11-13T10:26:16;18.45;;;15.93;;
52380;SDS011;38310;52.796;6.942;2022-11-13T10:28:43;16.42;;;14.32;;
52380;SDS011;38310;52.796;6.942;2022-11-13T10:31:09;16.27;;;13.98;;
52380;SDS011;38310;52.796;6.942;2022-11-13T10:33:36;18.13;;;14.27;;
52380;SDS011;38310;52.796;6.942;2022-11-13T10:41:11;13.48;;;11.63;;
52380;SDS011;38310;52.796;6.942;2022-11-13T10:47:02;13.88;;;11.27;;
52380;SDS011;38310;52.796;6.942;2022-11-13T10:49:34;12.85;;;11.55;;
52380;SDS011;38310;52.796;6.942;2022-11-13T10:52:00;13.45;;;11.80;;
52380;SDS011;38310;52.796;6.942;2022-11-13T10:56:58;12.43;;;10.75;;
52380;SDS011;38310;52.796;6.942;2022-11-13T10:59:25;13.63;;;10.65;;
52380;SDS011;38310;52.796;6.942;2022-11-13T11:04:48;13.27;;;10.23;;
52380;SDS011;38310;52.796;6.942;2022-11-13T11:07:15;11.38;;;9.32;;
52380;SDS011;38310;52.796;6.942;2022-11-13T11:09:42;11.80;;;8.90;;
52380;SDS011;38310;52.796;6.942;2022-11-13T11:12:13;10.52;;;9.10;;
52380;SDS011;38310;52.796;6.942;2022-11-13T11:14:46;11.45;;;9.18;;
52380;SDS011;38310;52.796;6.942;2022-11-13T11:17:44;10.10;;;8.63;;
52380;SDS011;38310;52.796;6.942;2022-11-13T11:23:04;9.68;;;7.88;;
52380;SDS011;38310;52.796;6.942;2022-11-13T11:25:48;10.60;;;8.23;;
52380;SDS011;38310;52.796;6.942;2022-11-13T11:28:31;8.82;;;7.03;;
52380;SDS011;38310;52.796;6.942;2022-11-13T11:36:29;9.55;;;7.25;;
52380;SDS011;38310;52.796;6.942;2022-11-13T11:39:01;8.18;;;6.47;;
52380;SDS011;38310;52.796;6.942;2022-11-13T11:41:42;8.27;;;6.78;;
52380;SDS011;38310;52.796;6.942;2022-11-13T11:44:25;9.10;;;7.00;;
52380;SDS011;38310;52.796;6.942;2022-11-13T11:47:26;8.23;;;6.43;;
52380;SDS011;38310;52.796;6.942;2022-11-13T11:49:52;7.80;;;6.38;;
52380;SDS011;38310;52.796;6.942;2022-11-13T11:55:04;7.47;;;6.32;;
52380;SDS011;38310;52.796;6.942;2022-11-13T12:00:30;7.63;;;5.93;;
52380;SDS011;38310;52.796;6.942;2022-11-13T12:11:13;10.15;;;7.05;;
52380;SDS011;38310;52.796;6.942;2022-11-13T12:13:47;8.45;;;6.68;;
52380;SDS011;38310;52.796;6.942;2022-11-13T12:16:25;9.45;;;6.63;;
52380;SDS011;38310;52.796;6.942;2022-11-13T12:35:51;9.30;;;6.32;;
52380;SDS011;38310;52.796;6.942;2022-11-13T12:43:59;6.90;;;5.70;;
52380;SDS011;38310;52.796;6.942;2022-11-13T12:46:46;7.00;;;6.05;;
52380;SDS011;38310;52.796;6.942;2022-11-13T12:51:55;7.60;;;5.43;;
52380;SDS011;38310;52.796;6.942;2022-11-13T12:54:26;7.35;;;5.50;;
52380;SDS011;38310;52.796;6.942;2022-11-13T12:57:04;6.88;;;4.90;;
52380;SDS011;38310;52.796;6.942;2022-11-13T12:59:43;6.15;;;5.15;;
52380;SDS011;38310;52.796;6.942;2022-11-13T13:46:45;7.65;;;5.43;;
52380;SDS011;38310;52.796;6.942;2022-11-13T13:49:15;6.68;;;4.63;;
52380;SDS011;38310;52.796;6.942;2022-11-13T13:54:16;4.88;;;4.10;;
52380;SDS011;38310;52.796;6.942;2022-11-13T13:56:45;6.05;;;4.32;;
52380;SDS011;38310;52.796;6.942;2022-11-13T13:59:15;6.75;;;4.90;;
52380;SDS011;38310;52.796;6.942;2022-11-13T14:01:53;5.55;;;4.93;;
52380;SDS011;38310;52.796;6.942;2022-11-13T14:04:22;6.53;;;4.20;;
52380;SDS011;38310;52.796;6.942;2022-11-13T14:06:50;7.97;;;5.65;;
52380;SDS011;38310;52.796;6.942;2022-11-13T14:09:22;6.20;;;5.10;;
52380;SDS011;38310;52.796;6.942;2022-11-13T14:14:40;7.47;;;5.63;;
52380;SDS011;38310;52.796;6.942;2022-11-13T14:17:09;6.78;;;5.60;;
52380;SDS011;38310;52.796;6.942;2022-11-13T14:22:24;6.38;;;4.78;;
52380;SDS011;38310;52.796;6.942;2022-11-13T14:24:56;5.38;;;4.32;;
52380;SDS011;38310;52.796;6.942;2022-11-13T14:27:25;5.72;;;4.40;;
52380;SDS011;38310;52.796;6.942;2022-11-13T14:29:55;6.15;;;4.75;;
52380;SDS011;38310;52.796;6.942;2022-11-13T14:32:32;5.47;;;4.82;;
52380;SDS011;38310;52.796;6.942;2022-11-13T14:35:04;7.07;;;4.80;;
52380;SDS011;38310;52.796;6.942;2022-11-13T14:40:01;7.53;;;4.78;;
52380;SDS011;38310;52.796;6.942;2022-11-13T14:42:41;8.07;;;4.97;;
52380;SDS011;38310;52.796;6.942;2022-11-13T14:47:40;5.15;;;4.45;;
52380;SDS011;38310;52.796;6.942;2022-11-13T14:50:28;6.75;;;5.05;;
52380;SDS011;38310;52.796;6.942;2022-11-13T14:53:02;8.15;;;5.68;;
52380;SDS011;38310;52.796;6.942;2022-11-13T14:55:35;8.60;;;5.55;;
52380;SDS011;38310;52.796;6.942;2022-11-13T14:58:02;7.43;;;6.32;;
52380;SDS011;38310;52.796;6.942;2022-11-13T15:00:39;6.68;;;5.57;;
52380;SDS011;38310;52.796;6.942;2022-11-13T15:03:05;8.25;;;5.70;;
52380;SDS011;38310;52.796;6.942;2022-11-13T15:05:31;6.63;;;5.93;;
52380;SDS011;38310;52.796;6.942;2022-11-13T15:07:57;6.43;;;5.50;;
52380;SDS011;38310;52.796;6.942;2022-11-13T15:10:24;6.95;;;5.95;;
52380;SDS011;38310;52.796;6.942;2022-11-13T15:12:52;6.60;;;5.35;;
52380;SDS011;38310;52.796;6.942;2022-11-13T15:15:19;8.77;;;5.72;;
52380;SDS011;38310;52.796;6.942;2022-11-13T15:17:47;7.53;;;6.00;;
52380;SDS011;38310;52.796;6.942;2022-11-13T15:20:16;8.10;;;6.05;;
52380;SDS011;38310;52.796;6.942;2022-11-13T15:22:46;7.53;;;5.85;;
52380;SDS011;38310;52.796;6.942;2022-11-13T15:25:14;7.85;;;6.40;;
52380;SDS011;38310;52.796;6.942;2022-11-13T15:27:41;9.50;;;6.35;;
52380;SDS011;38310;52.796;6.942;2022-11-13T15:30:14;7.20;;;6.45;;
52380;SDS011;38310;52.796;6.942;2022-11-13T15:32:40;8.95;;;7.22;;
52380;SDS011;38310;52.796;6.942;2022-11-13T15:35:08;8.95;;;7.22;;
52380;SDS011;38310;52.796;6.942;2022-11-13T15:37:38;12.63;;;10.57;;
52380;SDS011;38310;52.796;6.942;2022-11-13T15:40:04;13.82;;;11.90;;
52380;SDS011;38310;52.796;6.942;2022-11-13T15:42:31;12.02;;;9.95;;
52380;SDS011;38310;52.796;6.942;2022-11-13T15:44:58;20.05;;;14.88;;
52380;SDS011;38310;52.796;6.942;2022-11-13T15:47:25;15.75;;;12.27;;
52380;SDS011;38310;52.796;6.942;2022-11-13T15:49:53;16.95;;;13.05;;
52380;SDS011;38310;52.796;6.942;2022-11-13T15:52:19;12.63;;;10.10;;
52380;SDS011;38310;52.796;6.942;2022-11-13T15:54:45;9.45;;;8.13;;
52380;SDS011;38310;52.796;6.942;2022-11-13T15:57:21;11.27;;;8.85;;
52380;SDS011;38310;52.796;6.942;2022-11-13T15:59:48;8.75;;;7.78;;
52380;SDS011;38310;52.796;6.942;2022-11-13T16:02:14;11.50;;;7.32;;
52380;SDS011;38310;52.796;6.942;2022-11-13T16:04:41;10.43;;;8.15;;
52380;SDS011;38310;52.796;6.942;2022-11-13T16:07:15;14.00;;;11.77;;
52380;SDS011;38310;52.796;6.942;2022-11-13T16:09:43;26.75;;;22.13;;
52380;SDS011;38310;52.796;6.942;2022-11-13T16:12:10;36.35;;;26.83;;
52380;SDS011;38310;52.796;6.942;2022-11-13T16:14:36;49.78;;;33.88;;
52380;SDS011;38310;52.796;6.942;2022-11-13T16:17:04;65.03;;;43.22;;
52380;SDS011;38310;52.796;6.942;2022-11-13T16:19:35;49.53;;;36.15;;
52380;SDS011;38310;52.796;6.942;2022-11-13T16:22:02;42.95;;;32.78;;
52380;SDS011;38310;52.796;6.942;2022-11-13T16:24:27;35.88;;;26.33;;
52380;SDS011;38310;52.796;6.942;2022-11-13T16:26:54;16.40;;;12.60;;
52380;SDS011;38310;52.796;6.942;2022-11-13T16:29:22;17.30;;;12.18;;
52380;SDS011;38310;52.796;6.942;2022-11-13T16:31:48;12.50;;;10.52;;
52380;SDS011;38310;52.796;6.942;2022-11-13T16:34:14;12.93;;;10.43;;
52380;SDS011;38310;52.796;6.942;2022-11-13T16:36:40;12.57;;;10.00;;
52380;SDS011;38310;52.796;6.942;2022-11-13T16:39:08;10.95;;;8.65;;
52380;SDS011;38310;52.796;6.942;2022-11-13T16:41:39;10.35;;;9.20;;
52380;SDS011;38310;52.796;6.942;2022-11-13T16:44:04;10.25;;;8.93;;
52380;SDS011;38310;52.796;6.942;2022-11-13T16:46:31;9.82;;;8.70;;
52380;SDS011;38310;52.796;6.942;2022-11-13T16:48:58;11.57;;;9.07;;
52380;SDS011;38310;52.796;6.942;2022-11-13T16:51:24;11.30;;;10.10;;
52380;SDS011;38310;52.796;6.942;2022-11-13T16:53:50;12.77;;;10.00;;
52380;SDS011;38310;52.796;6.942;2022-11-13T16:56:20;11.73;;;10.23;;
52380;SDS011;38310;52.796;6.942;2022-11-13T16:58:52;12.13;;;10.40;;
52380;SDS011;38310;52.796;6.942;2022-11-13T17:01:21;12.73;;;10.52;;